<?xml version="1.0" encoding="UTF-8" standalone="no" ?>
<gpx xmlns="http://www.topografix.com/GPX/1/1" xmlns:xsi="http://www.w3.org/2001/XMLSchema-instance" xsi:schemaLocation="http://www.topografix.com/GPX/1/1 http://www.topografix.com/GPX/1/1/gpx.xsd" version="1.1" creator="VisuGPX - https://www.visugpx.com">
  <metadata>
    <name>Course à pied dans l'après-midi</name>
    <desc><![CDATA[Avec travail montée de genoux en côte]]></desc>
  </metadata>
  <trk>
    <name><![CDATA[Course à pied dans l'après-midi_1]]></name>
    <trkseg>
      <trkpt lat="48.71137" lon="7.16281">
        <ele>317.2</ele>
        <time>2023-10-19T14:29:36Z</time>
      </trkpt>
      <trkpt lat="48.71134" lon="7.1627">
        <ele>317.4</ele>
        <time>2023-10-19T14:29:38Z</time>
      </trkpt>
      <trkpt lat="48.71131" lon="7.16268">
        <ele>317.5</ele>
        <time>2023-10-19T14:29:40Z</time>
      </trkpt>
      <trkpt lat="48.71107" lon="7.16261">
        <ele>317.9</ele>
        <time>2023-10-19T14:29:45Z</time>
      </trkpt>
      <trkpt lat="48.7109" lon="7.16236">
        <ele>318.1</ele>
        <time>2023-10-19T14:29:53Z</time>
      </trkpt>
      <trkpt lat="48.71071" lon="7.16221">
        <ele>318.3</ele>
        <time>2023-10-19T14:30:00Z</time>
      </trkpt>
      <trkpt lat="48.71055" lon="7.16203">
        <ele>318.5</ele>
        <time>2023-10-19T14:30:07Z</time>
      </trkpt>
      <trkpt lat="48.71037" lon="7.16193">
        <ele>318.6</ele>
        <time>2023-10-19T14:30:14Z</time>
      </trkpt>
      <trkpt lat="48.71017" lon="7.16186">
        <ele>318.7</ele>
        <time>2023-10-19T14:30:21Z</time>
      </trkpt>
      <trkpt lat="48.70997" lon="7.1618">
        <ele>319</ele>
        <time>2023-10-19T14:30:28Z</time>
      </trkpt>
      <trkpt lat="48.70979" lon="7.16174">
        <ele>319.5</ele>
        <time>2023-10-19T14:30:34Z</time>
      </trkpt>
      <trkpt lat="48.70961" lon="7.16167">
        <ele>320.1</ele>
        <time>2023-10-19T14:30:41Z</time>
      </trkpt>
      <trkpt lat="48.70941" lon="7.16161">
        <ele>320.8</ele>
        <time>2023-10-19T14:30:48Z</time>
      </trkpt>
      <trkpt lat="48.70921" lon="7.16157">
        <ele>321.6</ele>
        <time>2023-10-19T14:30:55Z</time>
      </trkpt>
      <trkpt lat="48.70903" lon="7.16152">
        <ele>322.2</ele>
        <time>2023-10-19T14:31:06Z</time>
      </trkpt>
      <trkpt lat="48.70885" lon="7.16147">
        <ele>322.9</ele>
        <time>2023-10-19T14:31:13Z</time>
      </trkpt>
      <trkpt lat="48.70866" lon="7.16141">
        <ele>323.5</ele>
        <time>2023-10-19T14:31:20Z</time>
      </trkpt>
      <trkpt lat="48.70848" lon="7.16134">
        <ele>324.3</ele>
        <time>2023-10-19T14:31:27Z</time>
      </trkpt>
      <trkpt lat="48.70828" lon="7.16141">
        <ele>326</ele>
        <time>2023-10-19T14:31:34Z</time>
      </trkpt>
      <trkpt lat="48.70813" lon="7.16162">
        <ele>327.9</ele>
        <time>2023-10-19T14:31:41Z</time>
      </trkpt>
      <trkpt lat="48.70799" lon="7.1618">
        <ele>329.3</ele>
        <time>2023-10-19T14:31:48Z</time>
      </trkpt>
      <trkpt lat="48.70786" lon="7.162">
        <ele>330.7</ele>
        <time>2023-10-19T14:31:56Z</time>
      </trkpt>
      <trkpt lat="48.70774" lon="7.16222">
        <ele>332.3</ele>
        <time>2023-10-19T14:32:04Z</time>
      </trkpt>
      <trkpt lat="48.70764" lon="7.16246">
        <ele>334.1</ele>
        <time>2023-10-19T14:32:14Z</time>
      </trkpt>
      <trkpt lat="48.70752" lon="7.1627">
        <ele>336</ele>
        <time>2023-10-19T14:32:22Z</time>
      </trkpt>
      <trkpt lat="48.70741" lon="7.16293">
        <ele>337.7</ele>
        <time>2023-10-19T14:32:30Z</time>
      </trkpt>
      <trkpt lat="48.70727" lon="7.16316">
        <ele>339.2</ele>
        <time>2023-10-19T14:32:37Z</time>
      </trkpt>
      <trkpt lat="48.70713" lon="7.16339">
        <ele>340.9</ele>
        <time>2023-10-19T14:32:44Z</time>
      </trkpt>
      <trkpt lat="48.707" lon="7.1636">
        <ele>342.5</ele>
        <time>2023-10-19T14:32:51Z</time>
      </trkpt>
      <trkpt lat="48.70688" lon="7.16382">
        <ele>344</ele>
        <time>2023-10-19T14:32:58Z</time>
      </trkpt>
      <trkpt lat="48.70677" lon="7.16404">
        <ele>345.6</ele>
        <time>2023-10-19T14:33:05Z</time>
      </trkpt>
      <trkpt lat="48.70666" lon="7.16426">
        <ele>347</ele>
        <time>2023-10-19T14:33:12Z</time>
      </trkpt>
      <trkpt lat="48.70663" lon="7.16439">
        <ele>347.4</ele>
        <time>2023-10-19T14:33:16Z</time>
      </trkpt>
      <trkpt lat="48.7068" lon="7.16456">
        <ele>347.6</ele>
        <time>2023-10-19T14:33:23Z</time>
      </trkpt>
      <trkpt lat="48.70698" lon="7.16471">
        <ele>347.6</ele>
        <time>2023-10-19T14:33:30Z</time>
      </trkpt>
      <trkpt lat="48.70715" lon="7.16488">
        <ele>347.4</ele>
        <time>2023-10-19T14:33:37Z</time>
      </trkpt>
      <trkpt lat="48.70733" lon="7.16506">
        <ele>347.1</ele>
        <time>2023-10-19T14:33:44Z</time>
      </trkpt>
      <trkpt lat="48.7075" lon="7.16524">
        <ele>346.7</ele>
        <time>2023-10-19T14:33:51Z</time>
      </trkpt>
      <trkpt lat="48.70766" lon="7.16538">
        <ele>346.3</ele>
        <time>2023-10-19T14:33:57Z</time>
      </trkpt>
      <trkpt lat="48.70784" lon="7.16553">
        <ele>346</ele>
        <time>2023-10-19T14:34:04Z</time>
      </trkpt>
      <trkpt lat="48.70802" lon="7.16564">
        <ele>345.6</ele>
        <time>2023-10-19T14:34:10Z</time>
      </trkpt>
      <trkpt lat="48.7082" lon="7.16575">
        <ele>345.6</ele>
        <time>2023-10-19T14:34:16Z</time>
      </trkpt>
      <trkpt lat="48.70837" lon="7.16584">
        <ele>345.5</ele>
        <time>2023-10-19T14:34:22Z</time>
      </trkpt>
      <trkpt lat="48.70854" lon="7.16602">
        <ele>345.4</ele>
        <time>2023-10-19T14:34:29Z</time>
      </trkpt>
      <trkpt lat="48.70868" lon="7.16625">
        <ele>345.3</ele>
        <time>2023-10-19T14:34:36Z</time>
      </trkpt>
      <trkpt lat="48.70884" lon="7.16646">
        <ele>345.3</ele>
        <time>2023-10-19T14:34:42Z</time>
      </trkpt>
      <trkpt lat="48.709" lon="7.16663">
        <ele>345.3</ele>
        <time>2023-10-19T14:34:48Z</time>
      </trkpt>
      <trkpt lat="48.70916" lon="7.16684">
        <ele>345.3</ele>
        <time>2023-10-19T14:34:54Z</time>
      </trkpt>
      <trkpt lat="48.70931" lon="7.16704">
        <ele>345.2</ele>
        <time>2023-10-19T14:35:01Z</time>
      </trkpt>
      <trkpt lat="48.70948" lon="7.16722">
        <ele>345.2</ele>
        <time>2023-10-19T14:35:09Z</time>
      </trkpt>
      <trkpt lat="48.7096" lon="7.16744">
        <ele>345.4</ele>
        <time>2023-10-19T14:35:15Z</time>
      </trkpt>
      <trkpt lat="48.70968" lon="7.16772">
        <ele>345.8</ele>
        <time>2023-10-19T14:35:21Z</time>
      </trkpt>
      <trkpt lat="48.7097" lon="7.16801">
        <ele>346.3</ele>
        <time>2023-10-19T14:35:27Z</time>
      </trkpt>
      <trkpt lat="48.7097" lon="7.16828">
        <ele>346.6</ele>
        <time>2023-10-19T14:35:33Z</time>
      </trkpt>
      <trkpt lat="48.70977" lon="7.16856">
        <ele>347.1</ele>
        <time>2023-10-19T14:35:40Z</time>
      </trkpt>
      <trkpt lat="48.70989" lon="7.16878">
        <ele>347.4</ele>
        <time>2023-10-19T14:35:47Z</time>
      </trkpt>
      <trkpt lat="48.70998" lon="7.16906">
        <ele>347.9</ele>
        <time>2023-10-19T14:35:54Z</time>
      </trkpt>
      <trkpt lat="48.71002" lon="7.16932">
        <ele>348.6</ele>
        <time>2023-10-19T14:36:00Z</time>
      </trkpt>
      <trkpt lat="48.71001" lon="7.16962">
        <ele>349.3</ele>
        <time>2023-10-19T14:36:07Z</time>
      </trkpt>
      <trkpt lat="48.71" lon="7.16989">
        <ele>349.7</ele>
        <time>2023-10-19T14:36:14Z</time>
      </trkpt>
      <trkpt lat="48.71005" lon="7.17018">
        <ele>350.1</ele>
        <time>2023-10-19T14:36:21Z</time>
      </trkpt>
      <trkpt lat="48.71005" lon="7.17046">
        <ele>350.4</ele>
        <time>2023-10-19T14:36:28Z</time>
      </trkpt>
      <trkpt lat="48.71" lon="7.17074">
        <ele>350.6</ele>
        <time>2023-10-19T14:36:35Z</time>
      </trkpt>
      <trkpt lat="48.70989" lon="7.17101">
        <ele>350.9</ele>
        <time>2023-10-19T14:36:42Z</time>
      </trkpt>
      <trkpt lat="48.7098" lon="7.17125">
        <ele>351.2</ele>
        <time>2023-10-19T14:36:48Z</time>
      </trkpt>
      <trkpt lat="48.70973" lon="7.1715">
        <ele>351.6</ele>
        <time>2023-10-19T14:36:54Z</time>
      </trkpt>
      <trkpt lat="48.70964" lon="7.17178">
        <ele>352.1</ele>
        <time>2023-10-19T14:37:01Z</time>
      </trkpt>
      <trkpt lat="48.70956" lon="7.17206">
        <ele>352.7</ele>
        <time>2023-10-19T14:37:08Z</time>
      </trkpt>
      <trkpt lat="48.70948" lon="7.17234">
        <ele>353.2</ele>
        <time>2023-10-19T14:37:15Z</time>
      </trkpt>
      <trkpt lat="48.70931" lon="7.17249">
        <ele>353.2</ele>
        <time>2023-10-19T14:37:22Z</time>
      </trkpt>
      <trkpt lat="48.70912" lon="7.17244">
        <ele>353.1</ele>
        <time>2023-10-19T14:37:29Z</time>
      </trkpt>
      <trkpt lat="48.70894" lon="7.1724">
        <ele>353</ele>
        <time>2023-10-19T14:37:35Z</time>
      </trkpt>
      <trkpt lat="48.70874" lon="7.17237">
        <ele>352.6</ele>
        <time>2023-10-19T14:37:41Z</time>
      </trkpt>
      <trkpt lat="48.70855" lon="7.17233">
        <ele>352.1</ele>
        <time>2023-10-19T14:37:47Z</time>
      </trkpt>
      <trkpt lat="48.70837" lon="7.17227">
        <ele>351.2</ele>
        <time>2023-10-19T14:37:53Z</time>
      </trkpt>
      <trkpt lat="48.70817" lon="7.17221">
        <ele>349.9</ele>
        <time>2023-10-19T14:38:00Z</time>
      </trkpt>
      <trkpt lat="48.70798" lon="7.17217">
        <ele>348.8</ele>
        <time>2023-10-19T14:38:06Z</time>
      </trkpt>
      <trkpt lat="48.70779" lon="7.17213">
        <ele>347.6</ele>
        <time>2023-10-19T14:38:12Z</time>
      </trkpt>
      <trkpt lat="48.70759" lon="7.1721">
        <ele>346.2</ele>
        <time>2023-10-19T14:38:18Z</time>
      </trkpt>
      <trkpt lat="48.70739" lon="7.17208">
        <ele>344.4</ele>
        <time>2023-10-19T14:38:24Z</time>
      </trkpt>
      <trkpt lat="48.70719" lon="7.17204">
        <ele>342.3</ele>
        <time>2023-10-19T14:38:30Z</time>
      </trkpt>
      <trkpt lat="48.70699" lon="7.17201">
        <ele>340.1</ele>
        <time>2023-10-19T14:38:36Z</time>
      </trkpt>
      <trkpt lat="48.7068" lon="7.17194">
        <ele>338.1</ele>
        <time>2023-10-19T14:38:42Z</time>
      </trkpt>
      <trkpt lat="48.70659" lon="7.17192">
        <ele>335.9</ele>
        <time>2023-10-19T14:38:48Z</time>
      </trkpt>
      <trkpt lat="48.70641" lon="7.17191">
        <ele>333.9</ele>
        <time>2023-10-19T14:38:53Z</time>
      </trkpt>
      <trkpt lat="48.70619" lon="7.1719">
        <ele>332</ele>
        <time>2023-10-19T14:38:58Z</time>
      </trkpt>
      <trkpt lat="48.70599" lon="7.1719">
        <ele>331</ele>
        <time>2023-10-19T14:39:03Z</time>
      </trkpt>
      <trkpt lat="48.7058" lon="7.1719">
        <ele>331.1</ele>
        <time>2023-10-19T14:39:09Z</time>
      </trkpt>
      <trkpt lat="48.7056" lon="7.17194">
        <ele>332</ele>
        <time>2023-10-19T14:39:16Z</time>
      </trkpt>
      <trkpt lat="48.70542" lon="7.17199">
        <ele>333.7</ele>
        <time>2023-10-19T14:39:23Z</time>
      </trkpt>
      <trkpt lat="48.70522" lon="7.17204">
        <ele>336.1</ele>
        <time>2023-10-19T14:39:31Z</time>
      </trkpt>
      <trkpt lat="48.70504" lon="7.17213">
        <ele>339</ele>
        <time>2023-10-19T14:39:41Z</time>
      </trkpt>
      <trkpt lat="48.70487" lon="7.17228">
        <ele>341.7</ele>
        <time>2023-10-19T14:39:50Z</time>
      </trkpt>
      <trkpt lat="48.70472" lon="7.17244">
        <ele>343.7</ele>
        <time>2023-10-19T14:39:58Z</time>
      </trkpt>
      <trkpt lat="48.70456" lon="7.17262">
        <ele>345.6</ele>
        <time>2023-10-19T14:40:06Z</time>
      </trkpt>
      <trkpt lat="48.7044" lon="7.17281">
        <ele>347.5</ele>
        <time>2023-10-19T14:40:14Z</time>
      </trkpt>
      <trkpt lat="48.70425" lon="7.17299">
        <ele>349.1</ele>
        <time>2023-10-19T14:40:21Z</time>
      </trkpt>
      <trkpt lat="48.70409" lon="7.17316">
        <ele>350.4</ele>
        <time>2023-10-19T14:40:28Z</time>
      </trkpt>
      <trkpt lat="48.70393" lon="7.1733">
        <ele>351.5</ele>
        <time>2023-10-19T14:40:35Z</time>
      </trkpt>
      <trkpt lat="48.70377" lon="7.17345">
        <ele>352.6</ele>
        <time>2023-10-19T14:40:42Z</time>
      </trkpt>
      <trkpt lat="48.7036" lon="7.17358">
        <ele>353.7</ele>
        <time>2023-10-19T14:40:49Z</time>
      </trkpt>
      <trkpt lat="48.70342" lon="7.1737">
        <ele>354.8</ele>
        <time>2023-10-19T14:40:56Z</time>
      </trkpt>
      <trkpt lat="48.70324" lon="7.17384">
        <ele>356.1</ele>
        <time>2023-10-19T14:41:03Z</time>
      </trkpt>
      <trkpt lat="48.70306" lon="7.17398">
        <ele>357.5</ele>
        <time>2023-10-19T14:41:10Z</time>
      </trkpt>
      <trkpt lat="48.7029" lon="7.17414">
        <ele>358.9</ele>
        <time>2023-10-19T14:41:17Z</time>
      </trkpt>
      <trkpt lat="48.70276" lon="7.17431">
        <ele>360.2</ele>
        <time>2023-10-19T14:41:24Z</time>
      </trkpt>
      <trkpt lat="48.70262" lon="7.1745">
        <ele>361.5</ele>
        <time>2023-10-19T14:41:31Z</time>
      </trkpt>
      <trkpt lat="48.70247" lon="7.17469">
        <ele>362.5</ele>
        <time>2023-10-19T14:41:38Z</time>
      </trkpt>
      <trkpt lat="48.70232" lon="7.17489">
        <ele>363.4</ele>
        <time>2023-10-19T14:41:45Z</time>
      </trkpt>
      <trkpt lat="48.70218" lon="7.17508">
        <ele>364.2</ele>
        <time>2023-10-19T14:41:51Z</time>
      </trkpt>
      <trkpt lat="48.70204" lon="7.17528">
        <ele>365.1</ele>
        <time>2023-10-19T14:41:57Z</time>
      </trkpt>
      <trkpt lat="48.70191" lon="7.17548">
        <ele>366.1</ele>
        <time>2023-10-19T14:42:03Z</time>
      </trkpt>
      <trkpt lat="48.7018" lon="7.17574">
        <ele>367.1</ele>
        <time>2023-10-19T14:42:10Z</time>
      </trkpt>
      <trkpt lat="48.70169" lon="7.17596">
        <ele>368.1</ele>
        <time>2023-10-19T14:42:16Z</time>
      </trkpt>
      <trkpt lat="48.70158" lon="7.17619">
        <ele>369.2</ele>
        <time>2023-10-19T14:42:22Z</time>
      </trkpt>
      <trkpt lat="48.7015" lon="7.17643">
        <ele>370.5</ele>
        <time>2023-10-19T14:42:29Z</time>
      </trkpt>
      <trkpt lat="48.70146" lon="7.17672">
        <ele>371.9</ele>
        <time>2023-10-19T14:42:36Z</time>
      </trkpt>
      <trkpt lat="48.70145" lon="7.177">
        <ele>373.2</ele>
        <time>2023-10-19T14:42:42Z</time>
      </trkpt>
      <trkpt lat="48.70146" lon="7.17731">
        <ele>374.6</ele>
        <time>2023-10-19T14:42:48Z</time>
      </trkpt>
      <trkpt lat="48.70147" lon="7.1776">
        <ele>375.8</ele>
        <time>2023-10-19T14:42:54Z</time>
      </trkpt>
      <trkpt lat="48.70143" lon="7.17788">
        <ele>377.1</ele>
        <time>2023-10-19T14:43:00Z</time>
      </trkpt>
      <trkpt lat="48.70138" lon="7.17819">
        <ele>378.3</ele>
        <time>2023-10-19T14:43:07Z</time>
      </trkpt>
      <trkpt lat="48.70135" lon="7.17846">
        <ele>379.3</ele>
        <time>2023-10-19T14:43:13Z</time>
      </trkpt>
      <trkpt lat="48.70129" lon="7.17872">
        <ele>380.4</ele>
        <time>2023-10-19T14:43:19Z</time>
      </trkpt>
      <trkpt lat="48.70121" lon="7.179">
        <ele>381.7</ele>
        <time>2023-10-19T14:43:26Z</time>
      </trkpt>
      <trkpt lat="48.7011" lon="7.17923">
        <ele>382.7</ele>
        <time>2023-10-19T14:43:32Z</time>
      </trkpt>
      <trkpt lat="48.70098" lon="7.17944">
        <ele>383.7</ele>
        <time>2023-10-19T14:43:38Z</time>
      </trkpt>
      <trkpt lat="48.70084" lon="7.17964">
        <ele>384.4</ele>
        <time>2023-10-19T14:43:44Z</time>
      </trkpt>
      <trkpt lat="48.7007" lon="7.17981">
        <ele>385</ele>
        <time>2023-10-19T14:43:50Z</time>
      </trkpt>
      <trkpt lat="48.70053" lon="7.17998">
        <ele>385.4</ele>
        <time>2023-10-19T14:43:57Z</time>
      </trkpt>
      <trkpt lat="48.70038" lon="7.18013">
        <ele>385.6</ele>
        <time>2023-10-19T14:44:03Z</time>
      </trkpt>
      <trkpt lat="48.70022" lon="7.18014">
        <ele>385.7</ele>
        <time>2023-10-19T14:44:10Z</time>
      </trkpt>
      <trkpt lat="48.70016" lon="7.18006">
        <ele>386</ele>
        <time>2023-10-19T14:44:56Z</time>
      </trkpt>
      <trkpt lat="48.70014" lon="7.18005">
        <ele>386</ele>
        <time>2023-10-19T14:44:58Z</time>
      </trkpt>
      <trkpt lat="48.69995" lon="7.18009">
        <ele>386.1</ele>
        <time>2023-10-19T14:45:07Z</time>
      </trkpt>
      <trkpt lat="48.69975" lon="7.18019">
        <ele>385.1</ele>
        <time>2023-10-19T14:45:15Z</time>
      </trkpt>
      <trkpt lat="48.69958" lon="7.18029">
        <ele>383</ele>
        <time>2023-10-19T14:45:21Z</time>
      </trkpt>
      <trkpt lat="48.6994" lon="7.18037">
        <ele>380.6</ele>
        <time>2023-10-19T14:45:26Z</time>
      </trkpt>
      <trkpt lat="48.69925" lon="7.18052">
        <ele>378.3</ele>
        <time>2023-10-19T14:45:31Z</time>
      </trkpt>
      <trkpt lat="48.69908" lon="7.18062">
        <ele>376.6</ele>
        <time>2023-10-19T14:45:36Z</time>
      </trkpt>
      <trkpt lat="48.69887" lon="7.18056">
        <ele>374.8</ele>
        <time>2023-10-19T14:45:42Z</time>
      </trkpt>
      <trkpt lat="48.69871" lon="7.18044">
        <ele>372.8</ele>
        <time>2023-10-19T14:45:47Z</time>
      </trkpt>
      <trkpt lat="48.69857" lon="7.18025">
        <ele>370.6</ele>
        <time>2023-10-19T14:45:53Z</time>
      </trkpt>
      <trkpt lat="48.69847" lon="7.17998">
        <ele>369.4</ele>
        <time>2023-10-19T14:46:00Z</time>
      </trkpt>
      <trkpt lat="48.69842" lon="7.17968">
        <ele>369.3</ele>
        <time>2023-10-19T14:46:06Z</time>
      </trkpt>
      <trkpt lat="48.69835" lon="7.17946">
        <ele>369</ele>
        <time>2023-10-19T14:46:13Z</time>
      </trkpt>
      <trkpt lat="48.69831" lon="7.17975">
        <ele>368.7</ele>
        <time>2023-10-19T14:46:20Z</time>
      </trkpt>
      <trkpt lat="48.69825" lon="7.18001">
        <ele>367.8</ele>
        <time>2023-10-19T14:46:26Z</time>
      </trkpt>
      <trkpt lat="48.69822" lon="7.18032">
        <ele>366.7</ele>
        <time>2023-10-19T14:46:32Z</time>
      </trkpt>
      <trkpt lat="48.69814" lon="7.18059">
        <ele>364.3</ele>
        <time>2023-10-19T14:46:38Z</time>
      </trkpt>
      <trkpt lat="48.69808" lon="7.18085">
        <ele>362.3</ele>
        <time>2023-10-19T14:46:44Z</time>
      </trkpt>
      <trkpt lat="48.69794" lon="7.18105">
        <ele>358.7</ele>
        <time>2023-10-19T14:46:49Z</time>
      </trkpt>
      <trkpt lat="48.69781" lon="7.1813">
        <ele>356.4</ele>
        <time>2023-10-19T14:46:55Z</time>
      </trkpt>
      <trkpt lat="48.69764" lon="7.18144">
        <ele>352.1</ele>
        <time>2023-10-19T14:46:59Z</time>
      </trkpt>
      <trkpt lat="48.69749" lon="7.18162">
        <ele>348.2</ele>
        <time>2023-10-19T14:47:05Z</time>
      </trkpt>
      <trkpt lat="48.69734" lon="7.18182">
        <ele>344.4</ele>
        <time>2023-10-19T14:47:12Z</time>
      </trkpt>
      <trkpt lat="48.69725" lon="7.18206">
        <ele>341.9</ele>
        <time>2023-10-19T14:47:18Z</time>
      </trkpt>
      <trkpt lat="48.69711" lon="7.18235">
        <ele>338.9</ele>
        <time>2023-10-19T14:47:24Z</time>
      </trkpt>
      <trkpt lat="48.69701" lon="7.18258">
        <ele>335.5</ele>
        <time>2023-10-19T14:47:28Z</time>
      </trkpt>
      <trkpt lat="48.69694" lon="7.18287">
        <ele>333.5</ele>
        <time>2023-10-19T14:47:37Z</time>
      </trkpt>
      <trkpt lat="48.69688" lon="7.18313">
        <ele>331</ele>
        <time>2023-10-19T14:47:44Z</time>
      </trkpt>
      <trkpt lat="48.69688" lon="7.18341">
        <ele>330.8</ele>
        <time>2023-10-19T14:47:51Z</time>
      </trkpt>
      <trkpt lat="48.69688" lon="7.1837">
        <ele>329.9</ele>
        <time>2023-10-19T14:47:56Z</time>
      </trkpt>
      <trkpt lat="48.69691" lon="7.18401">
        <ele>330.9</ele>
        <time>2023-10-19T14:48:03Z</time>
      </trkpt>
      <trkpt lat="48.69698" lon="7.18427">
        <ele>332.1</ele>
        <time>2023-10-19T14:48:08Z</time>
      </trkpt>
      <trkpt lat="48.69704" lon="7.18458">
        <ele>333.1</ele>
        <time>2023-10-19T14:48:15Z</time>
      </trkpt>
      <trkpt lat="48.69695" lon="7.18485">
        <ele>328</ele>
        <time>2023-10-19T14:48:23Z</time>
      </trkpt>
      <trkpt lat="48.69689" lon="7.18512">
        <ele>322.9</ele>
        <time>2023-10-19T14:48:29Z</time>
      </trkpt>
      <trkpt lat="48.69692" lon="7.1854">
        <ele>320.6</ele>
        <time>2023-10-19T14:48:35Z</time>
      </trkpt>
      <trkpt lat="48.69706" lon="7.18561">
        <ele>321.7</ele>
        <time>2023-10-19T14:48:41Z</time>
      </trkpt>
      <trkpt lat="48.69712" lon="7.18591">
        <ele>320</ele>
        <time>2023-10-19T14:48:48Z</time>
      </trkpt>
      <trkpt lat="48.69723" lon="7.18616">
        <ele>320.6</ele>
        <time>2023-10-19T14:48:55Z</time>
      </trkpt>
      <trkpt lat="48.6972" lon="7.18649">
        <ele>314.5</ele>
        <time>2023-10-19T14:49:02Z</time>
      </trkpt>
      <trkpt lat="48.69713" lon="7.18679">
        <ele>308.3</ele>
        <time>2023-10-19T14:49:08Z</time>
      </trkpt>
      <trkpt lat="48.69707" lon="7.18711">
        <ele>305.7</ele>
        <time>2023-10-19T14:49:14Z</time>
      </trkpt>
      <trkpt lat="48.69701" lon="7.18738">
        <ele>304.6</ele>
        <time>2023-10-19T14:49:20Z</time>
      </trkpt>
      <trkpt lat="48.697" lon="7.18772">
        <ele>304.7</ele>
        <time>2023-10-19T14:49:26Z</time>
      </trkpt>
      <trkpt lat="48.69692" lon="7.188">
        <ele>300.4</ele>
        <time>2023-10-19T14:49:31Z</time>
      </trkpt>
      <trkpt lat="48.69686" lon="7.18827">
        <ele>297.6</ele>
        <time>2023-10-19T14:49:37Z</time>
      </trkpt>
      <trkpt lat="48.69686" lon="7.18855">
        <ele>297.3</ele>
        <time>2023-10-19T14:49:43Z</time>
      </trkpt>
      <trkpt lat="48.6968" lon="7.18884">
        <ele>295.3</ele>
        <time>2023-10-19T14:49:48Z</time>
      </trkpt>
      <trkpt lat="48.69667" lon="7.18907">
        <ele>292</ele>
        <time>2023-10-19T14:49:53Z</time>
      </trkpt>
      <trkpt lat="48.69658" lon="7.18933">
        <ele>289.9</ele>
        <time>2023-10-19T14:49:59Z</time>
      </trkpt>
      <trkpt lat="48.69647" lon="7.18959">
        <ele>287.4</ele>
        <time>2023-10-19T14:50:06Z</time>
      </trkpt>
      <trkpt lat="48.69642" lon="7.18991">
        <ele>287.4</ele>
        <time>2023-10-19T14:50:13Z</time>
      </trkpt>
      <trkpt lat="48.69634" lon="7.19018">
        <ele>285.1</ele>
        <time>2023-10-19T14:50:20Z</time>
      </trkpt>
      <trkpt lat="48.69627" lon="7.19048">
        <ele>284.4</ele>
        <time>2023-10-19T14:50:26Z</time>
      </trkpt>
      <trkpt lat="48.69616" lon="7.19073">
        <ele>281.8</ele>
        <time>2023-10-19T14:50:32Z</time>
      </trkpt>
      <trkpt lat="48.69608" lon="7.19101">
        <ele>280.1</ele>
        <time>2023-10-19T14:50:39Z</time>
      </trkpt>
      <trkpt lat="48.69599" lon="7.19129">
        <ele>279.9</ele>
        <time>2023-10-19T14:50:45Z</time>
      </trkpt>
      <trkpt lat="48.69589" lon="7.19154">
        <ele>277.8</ele>
        <time>2023-10-19T14:50:51Z</time>
      </trkpt>
      <trkpt lat="48.69581" lon="7.19182">
        <ele>278</ele>
        <time>2023-10-19T14:50:57Z</time>
      </trkpt>
      <trkpt lat="48.69572" lon="7.19206">
        <ele>278.1</ele>
        <time>2023-10-19T14:51:02Z</time>
      </trkpt>
      <trkpt lat="48.69563" lon="7.1923">
        <ele>277.1</ele>
        <time>2023-10-19T14:51:08Z</time>
      </trkpt>
      <trkpt lat="48.69553" lon="7.19256">
        <ele>276.8</ele>
        <time>2023-10-19T14:51:14Z</time>
      </trkpt>
      <trkpt lat="48.69543" lon="7.19284">
        <ele>276.3</ele>
        <time>2023-10-19T14:51:20Z</time>
      </trkpt>
      <trkpt lat="48.69532" lon="7.19307">
        <ele>274.2</ele>
        <time>2023-10-19T14:51:26Z</time>
      </trkpt>
      <trkpt lat="48.69524" lon="7.19334">
        <ele>274.6</ele>
        <time>2023-10-19T14:51:32Z</time>
      </trkpt>
      <trkpt lat="48.69515" lon="7.19359">
        <ele>274</ele>
        <time>2023-10-19T14:51:39Z</time>
      </trkpt>
      <trkpt lat="48.69506" lon="7.19383">
        <ele>274</ele>
        <time>2023-10-19T14:51:46Z</time>
      </trkpt>
      <trkpt lat="48.69496" lon="7.1941">
        <ele>273.4</ele>
        <time>2023-10-19T14:51:52Z</time>
      </trkpt>
      <trkpt lat="48.69486" lon="7.19436">
        <ele>272.6</ele>
        <time>2023-10-19T14:51:57Z</time>
      </trkpt>
      <trkpt lat="48.69477" lon="7.19461">
        <ele>272.1</ele>
        <time>2023-10-19T14:52:02Z</time>
      </trkpt>
      <trkpt lat="48.69469" lon="7.19486">
        <ele>272.8</ele>
        <time>2023-10-19T14:52:08Z</time>
      </trkpt>
      <trkpt lat="48.69462" lon="7.19516">
        <ele>275</ele>
        <time>2023-10-19T14:52:14Z</time>
      </trkpt>
      <trkpt lat="48.69453" lon="7.19542">
        <ele>275.6</ele>
        <time>2023-10-19T14:52:20Z</time>
      </trkpt>
      <trkpt lat="48.69442" lon="7.19569">
        <ele>274.2</ele>
        <time>2023-10-19T14:52:28Z</time>
      </trkpt>
      <trkpt lat="48.69433" lon="7.19596">
        <ele>272.1</ele>
        <time>2023-10-19T14:52:34Z</time>
      </trkpt>
      <trkpt lat="48.69421" lon="7.19618">
        <ele>269.5</ele>
        <time>2023-10-19T14:52:40Z</time>
      </trkpt>
      <trkpt lat="48.6941" lon="7.19642">
        <ele>267.5</ele>
        <time>2023-10-19T14:52:46Z</time>
      </trkpt>
      <trkpt lat="48.69404" lon="7.19673">
        <ele>266.8</ele>
        <time>2023-10-19T14:52:54Z</time>
      </trkpt>
      <trkpt lat="48.69399" lon="7.19703">
        <ele>265.6</ele>
        <time>2023-10-19T14:53:01Z</time>
      </trkpt>
      <trkpt lat="48.69397" lon="7.19732">
        <ele>265.2</ele>
        <time>2023-10-19T14:53:07Z</time>
      </trkpt>
      <trkpt lat="48.69396" lon="7.19761">
        <ele>264.4</ele>
        <time>2023-10-19T14:53:13Z</time>
      </trkpt>
      <trkpt lat="48.6939" lon="7.19789">
        <ele>263.6</ele>
        <time>2023-10-19T14:53:18Z</time>
      </trkpt>
      <trkpt lat="48.69389" lon="7.19819">
        <ele>262.6</ele>
        <time>2023-10-19T14:53:23Z</time>
      </trkpt>
      <trkpt lat="48.69393" lon="7.19846">
        <ele>261</ele>
        <time>2023-10-19T14:53:28Z</time>
      </trkpt>
      <trkpt lat="48.69395" lon="7.19875">
        <ele>258.2</ele>
        <time>2023-10-19T14:53:33Z</time>
      </trkpt>
      <trkpt lat="48.69398" lon="7.19907">
        <ele>255.7</ele>
        <time>2023-10-19T14:53:39Z</time>
      </trkpt>
      <trkpt lat="48.694" lon="7.19938">
        <ele>253.4</ele>
        <time>2023-10-19T14:53:45Z</time>
      </trkpt>
      <trkpt lat="48.69405" lon="7.19968">
        <ele>251.8</ele>
        <time>2023-10-19T14:53:52Z</time>
      </trkpt>
      <trkpt lat="48.69413" lon="7.19994">
        <ele>251.3</ele>
        <time>2023-10-19T14:54:01Z</time>
      </trkpt>
      <trkpt lat="48.6941" lon="7.20022">
        <ele>247.8</ele>
        <time>2023-10-19T14:54:08Z</time>
      </trkpt>
      <trkpt lat="48.69414" lon="7.2005">
        <ele>246.6</ele>
        <time>2023-10-19T14:54:14Z</time>
      </trkpt>
      <trkpt lat="48.69412" lon="7.20077">
        <ele>243.5</ele>
        <time>2023-10-19T14:54:19Z</time>
      </trkpt>
      <trkpt lat="48.69411" lon="7.20081">
        <ele>243.2</ele>
        <time>2023-10-19T14:54:20Z</time>
      </trkpt>
      <trkpt lat="48.69408" lon="7.20084">
        <ele>242.8</ele>
        <time>2023-10-19T14:54:22Z</time>
      </trkpt>
      <trkpt lat="48.69407" lon="7.20084">
        <ele>242.6</ele>
        <time>2023-10-19T14:54:27Z</time>
      </trkpt>
      <trkpt lat="48.69411" lon="7.20057">
        <ele>245.2</ele>
        <time>2023-10-19T14:54:38Z</time>
      </trkpt>
      <trkpt lat="48.69407" lon="7.20028">
        <ele>247</ele>
        <time>2023-10-19T14:54:47Z</time>
      </trkpt>
      <trkpt lat="48.69399" lon="7.20004">
        <ele>248.1</ele>
        <time>2023-10-19T14:54:55Z</time>
      </trkpt>
      <trkpt lat="48.69385" lon="7.1998">
        <ele>249</ele>
        <time>2023-10-19T14:55:03Z</time>
      </trkpt>
      <trkpt lat="48.6937" lon="7.19961">
        <ele>250.6</ele>
        <time>2023-10-19T14:55:10Z</time>
      </trkpt>
      <trkpt lat="48.69362" lon="7.19933">
        <ele>254.5</ele>
        <time>2023-10-19T14:55:18Z</time>
      </trkpt>
      <trkpt lat="48.69356" lon="7.19903">
        <ele>257.7</ele>
        <time>2023-10-19T14:55:26Z</time>
      </trkpt>
      <trkpt lat="48.69353" lon="7.19873">
        <ele>260.1</ele>
        <time>2023-10-19T14:55:33Z</time>
      </trkpt>
      <trkpt lat="48.69355" lon="7.19845">
        <ele>261.7</ele>
        <time>2023-10-19T14:55:40Z</time>
      </trkpt>
      <trkpt lat="48.69357" lon="7.19815">
        <ele>263.5</ele>
        <time>2023-10-19T14:55:49Z</time>
      </trkpt>
      <trkpt lat="48.6936" lon="7.19787">
        <ele>264.7</ele>
        <time>2023-10-19T14:56:02Z</time>
      </trkpt>
      <trkpt lat="48.69361" lon="7.19785">
        <ele>264.7</ele>
        <time>2023-10-19T14:56:03Z</time>
      </trkpt>
      <trkpt lat="48.69361" lon="7.19784">
        <ele>264.7</ele>
        <time>2023-10-19T14:56:05Z</time>
      </trkpt>
      <trkpt lat="48.6936" lon="7.1978">
        <ele>264.7</ele>
        <time>2023-10-19T14:56:08Z</time>
      </trkpt>
      <trkpt lat="48.69362" lon="7.19779">
        <ele>264.6</ele>
        <time>2023-10-19T14:56:10Z</time>
      </trkpt>
      <trkpt lat="48.69362" lon="7.19778">
        <ele>264.6</ele>
        <time>2023-10-19T14:56:13Z</time>
      </trkpt>
      <trkpt lat="48.69362" lon="7.19776">
        <ele>264.6</ele>
        <time>2023-10-19T14:56:16Z</time>
      </trkpt>
      <trkpt lat="48.69355" lon="7.19772">
        <ele>264.7</ele>
        <time>2023-10-19T14:56:20Z</time>
      </trkpt>
      <trkpt lat="48.69352" lon="7.19772">
        <ele>264.9</ele>
        <time>2023-10-19T14:56:22Z</time>
      </trkpt>
      <trkpt lat="48.69348" lon="7.19771">
        <ele>265.3</ele>
        <time>2023-10-19T14:56:24Z</time>
      </trkpt>
      <trkpt lat="48.69342" lon="7.19769">
        <ele>266.1</ele>
        <time>2023-10-19T14:56:27Z</time>
      </trkpt>
      <trkpt lat="48.69338" lon="7.19768">
        <ele>266.6</ele>
        <time>2023-10-19T14:56:30Z</time>
      </trkpt>
      <trkpt lat="48.69333" lon="7.19766">
        <ele>268.2</ele>
        <time>2023-10-19T14:56:35Z</time>
      </trkpt>
      <trkpt lat="48.69329" lon="7.19765">
        <ele>268.9</ele>
        <time>2023-10-19T14:56:39Z</time>
      </trkpt>
      <trkpt lat="48.69326" lon="7.19763">
        <ele>269.7</ele>
        <time>2023-10-19T14:56:41Z</time>
      </trkpt>
      <trkpt lat="48.69323" lon="7.19763">
        <ele>270.8</ele>
        <time>2023-10-19T14:56:43Z</time>
      </trkpt>
      <trkpt lat="48.69316" lon="7.19761">
        <ele>273.1</ele>
        <time>2023-10-19T14:56:51Z</time>
      </trkpt>
      <trkpt lat="48.69314" lon="7.19761">
        <ele>273.8</ele>
        <time>2023-10-19T14:56:55Z</time>
      </trkpt>
      <trkpt lat="48.69311" lon="7.1976">
        <ele>274.6</ele>
        <time>2023-10-19T14:56:58Z</time>
      </trkpt>
      <trkpt lat="48.6931" lon="7.19759">
        <ele>274.6</ele>
        <time>2023-10-19T14:57:02Z</time>
      </trkpt>
      <trkpt lat="48.69307" lon="7.19759">
        <ele>275.4</ele>
        <time>2023-10-19T14:57:07Z</time>
      </trkpt>
      <trkpt lat="48.69305" lon="7.1976">
        <ele>276.3</ele>
        <time>2023-10-19T14:57:09Z</time>
      </trkpt>
      <trkpt lat="48.69301" lon="7.19763">
        <ele>277.2</ele>
        <time>2023-10-19T14:57:12Z</time>
      </trkpt>
      <trkpt lat="48.69299" lon="7.19767">
        <ele>277.8</ele>
        <time>2023-10-19T14:57:14Z</time>
      </trkpt>
      <trkpt lat="48.69289" lon="7.19793">
        <ele>279.1</ele>
        <time>2023-10-19T14:57:24Z</time>
      </trkpt>
      <trkpt lat="48.69283" lon="7.1982">
        <ele>279.7</ele>
        <time>2023-10-19T14:57:32Z</time>
      </trkpt>
      <trkpt lat="48.69278" lon="7.19848">
        <ele>278.2</ele>
        <time>2023-10-19T14:57:41Z</time>
      </trkpt>
      <trkpt lat="48.69274" lon="7.19876">
        <ele>276.7</ele>
        <time>2023-10-19T14:57:50Z</time>
      </trkpt>
      <trkpt lat="48.69278" lon="7.19902">
        <ele>272.7</ele>
        <time>2023-10-19T14:57:57Z</time>
      </trkpt>
      <trkpt lat="48.69261" lon="7.19893">
        <ele>275.1</ele>
        <time>2023-10-19T14:58:11Z</time>
      </trkpt>
      <trkpt lat="48.69251" lon="7.1987">
        <ele>277.4</ele>
        <time>2023-10-19T14:58:19Z</time>
      </trkpt>
      <trkpt lat="48.69241" lon="7.19847">
        <ele>280</ele>
        <time>2023-10-19T14:58:31Z</time>
      </trkpt>
      <trkpt lat="48.6924" lon="7.19836">
        <ele>281.1</ele>
        <time>2023-10-19T14:58:39Z</time>
      </trkpt>
      <trkpt lat="48.69238" lon="7.19828">
        <ele>282</ele>
        <time>2023-10-19T14:58:44Z</time>
      </trkpt>
      <trkpt lat="48.69234" lon="7.19826">
        <ele>282.6</ele>
        <time>2023-10-19T14:58:47Z</time>
      </trkpt>
      <trkpt lat="48.69233" lon="7.19823">
        <ele>282.9</ele>
        <time>2023-10-19T14:58:50Z</time>
      </trkpt>
      <trkpt lat="48.69231" lon="7.1982">
        <ele>283.3</ele>
        <time>2023-10-19T14:58:54Z</time>
      </trkpt>
      <trkpt lat="48.69229" lon="7.19817">
        <ele>283.7</ele>
        <time>2023-10-19T14:58:56Z</time>
      </trkpt>
      <trkpt lat="48.69218" lon="7.19792">
        <ele>286.5</ele>
        <time>2023-10-19T14:59:07Z</time>
      </trkpt>
      <trkpt lat="48.69215" lon="7.19772">
        <ele>288.5</ele>
        <time>2023-10-19T14:59:18Z</time>
      </trkpt>
      <trkpt lat="48.69215" lon="7.19766">
        <ele>289.1</ele>
        <time>2023-10-19T14:59:22Z</time>
      </trkpt>
      <trkpt lat="48.69216" lon="7.19761">
        <ele>289.7</ele>
        <time>2023-10-19T14:59:25Z</time>
      </trkpt>
      <trkpt lat="48.69214" lon="7.19747">
        <ele>291.1</ele>
        <time>2023-10-19T14:59:36Z</time>
      </trkpt>
      <trkpt lat="48.69214" lon="7.19744">
        <ele>291.4</ele>
        <time>2023-10-19T14:59:39Z</time>
      </trkpt>
      <trkpt lat="48.69212" lon="7.19715">
        <ele>294.1</ele>
        <time>2023-10-19T14:59:52Z</time>
      </trkpt>
      <trkpt lat="48.69214" lon="7.19696">
        <ele>296</ele>
        <time>2023-10-19T15:00:03Z</time>
      </trkpt>
      <trkpt lat="48.69215" lon="7.19684">
        <ele>297.4</ele>
        <time>2023-10-19T15:00:11Z</time>
      </trkpt>
      <trkpt lat="48.69215" lon="7.19678">
        <ele>298.1</ele>
        <time>2023-10-19T15:00:14Z</time>
      </trkpt>
      <trkpt lat="48.69216" lon="7.19667">
        <ele>299.5</ele>
        <time>2023-10-19T15:00:22Z</time>
      </trkpt>
      <trkpt lat="48.69216" lon="7.19661">
        <ele>300.4</ele>
        <time>2023-10-19T15:00:26Z</time>
      </trkpt>
      <trkpt lat="48.6922" lon="7.19654">
        <ele>301.6</ele>
        <time>2023-10-19T15:00:32Z</time>
      </trkpt>
      <trkpt lat="48.69224" lon="7.19626">
        <ele>305.2</ele>
        <time>2023-10-19T15:00:45Z</time>
      </trkpt>
      <trkpt lat="48.69223" lon="7.19605">
        <ele>307.5</ele>
        <time>2023-10-19T15:00:56Z</time>
      </trkpt>
      <trkpt lat="48.69226" lon="7.19598">
        <ele>308.4</ele>
        <time>2023-10-19T15:01:02Z</time>
      </trkpt>
      <trkpt lat="48.69226" lon="7.19594">
        <ele>308.9</ele>
        <time>2023-10-19T15:01:05Z</time>
      </trkpt>
      <trkpt lat="48.69231" lon="7.19579">
        <ele>310.4</ele>
        <time>2023-10-19T15:01:16Z</time>
      </trkpt>
      <trkpt lat="48.69232" lon="7.19573">
        <ele>310.7</ele>
        <time>2023-10-19T15:01:21Z</time>
      </trkpt>
      <trkpt lat="48.69232" lon="7.19569">
        <ele>310.6</ele>
        <time>2023-10-19T15:01:23Z</time>
      </trkpt>
      <trkpt lat="48.69238" lon="7.19541">
        <ele>311.1</ele>
        <time>2023-10-19T15:01:33Z</time>
      </trkpt>
      <trkpt lat="48.69244" lon="7.19514">
        <ele>313.2</ele>
        <time>2023-10-19T15:01:44Z</time>
      </trkpt>
      <trkpt lat="48.69251" lon="7.19487">
        <ele>316.4</ele>
        <time>2023-10-19T15:02:00Z</time>
      </trkpt>
      <trkpt lat="48.69257" lon="7.19472">
        <ele>317.7</ele>
        <time>2023-10-19T15:02:12Z</time>
      </trkpt>
      <trkpt lat="48.69268" lon="7.19445">
        <ele>321.9</ele>
        <time>2023-10-19T15:02:26Z</time>
      </trkpt>
      <trkpt lat="48.69278" lon="7.19423">
        <ele>324.9</ele>
        <time>2023-10-19T15:02:33Z</time>
      </trkpt>
      <trkpt lat="48.69287" lon="7.19396">
        <ele>329.8</ele>
        <time>2023-10-19T15:02:40Z</time>
      </trkpt>
      <trkpt lat="48.69296" lon="7.1937">
        <ele>335.2</ele>
        <time>2023-10-19T15:02:48Z</time>
      </trkpt>
      <trkpt lat="48.69304" lon="7.19344">
        <ele>339.8</ele>
        <time>2023-10-19T15:02:56Z</time>
      </trkpt>
      <trkpt lat="48.69311" lon="7.19316">
        <ele>344.3</ele>
        <time>2023-10-19T15:03:04Z</time>
      </trkpt>
      <trkpt lat="48.69316" lon="7.19289">
        <ele>347.7</ele>
        <time>2023-10-19T15:03:11Z</time>
      </trkpt>
      <trkpt lat="48.69317" lon="7.19261">
        <ele>351.3</ele>
        <time>2023-10-19T15:03:18Z</time>
      </trkpt>
      <trkpt lat="48.69319" lon="7.19233">
        <ele>354.3</ele>
        <time>2023-10-19T15:03:26Z</time>
      </trkpt>
      <trkpt lat="48.69324" lon="7.19204">
        <ele>356.3</ele>
        <time>2023-10-19T15:03:38Z</time>
      </trkpt>
      <trkpt lat="48.69327" lon="7.19177">
        <ele>357.9</ele>
        <time>2023-10-19T15:03:56Z</time>
      </trkpt>
      <trkpt lat="48.69328" lon="7.19149">
        <ele>361.5</ele>
        <time>2023-10-19T15:04:14Z</time>
      </trkpt>
      <trkpt lat="48.69332" lon="7.19123">
        <ele>364.7</ele>
        <time>2023-10-19T15:04:28Z</time>
      </trkpt>
      <trkpt lat="48.69326" lon="7.19103">
        <ele>368</ele>
        <time>2023-10-19T15:04:40Z</time>
      </trkpt>
      <trkpt lat="48.69324" lon="7.19092">
        <ele>369.9</ele>
        <time>2023-10-19T15:04:45Z</time>
      </trkpt>
      <trkpt lat="48.69327" lon="7.19086">
        <ele>370.4</ele>
        <time>2023-10-19T15:04:49Z</time>
      </trkpt>
      <trkpt lat="48.69329" lon="7.1908">
        <ele>371.5</ele>
        <time>2023-10-19T15:04:53Z</time>
      </trkpt>
      <trkpt lat="48.6933" lon="7.19077">
        <ele>371.5</ele>
        <time>2023-10-19T15:04:55Z</time>
      </trkpt>
      <trkpt lat="48.69337" lon="7.19065">
        <ele>372.7</ele>
        <time>2023-10-19T15:05:05Z</time>
      </trkpt>
      <trkpt lat="48.69339" lon="7.19038">
        <ele>377.3</ele>
        <time>2023-10-19T15:05:22Z</time>
      </trkpt>
      <trkpt lat="48.69338" lon="7.19032">
        <ele>378.6</ele>
        <time>2023-10-19T15:05:29Z</time>
      </trkpt>
      <trkpt lat="48.69339" lon="7.19024">
        <ele>380</ele>
        <time>2023-10-19T15:05:37Z</time>
      </trkpt>
      <trkpt lat="48.69339" lon="7.19019">
        <ele>380.7</ele>
        <time>2023-10-19T15:05:40Z</time>
      </trkpt>
      <trkpt lat="48.69339" lon="7.19014">
        <ele>381.5</ele>
        <time>2023-10-19T15:05:43Z</time>
      </trkpt>
      <trkpt lat="48.69338" lon="7.19011">
        <ele>382.3</ele>
        <time>2023-10-19T15:05:45Z</time>
      </trkpt>
      <trkpt lat="48.69335" lon="7.19007">
        <ele>383.5</ele>
        <time>2023-10-19T15:05:49Z</time>
      </trkpt>
      <trkpt lat="48.69334" lon="7.19002">
        <ele>384.3</ele>
        <time>2023-10-19T15:05:53Z</time>
      </trkpt>
      <trkpt lat="48.69322" lon="7.18981">
        <ele>388.9</ele>
        <time>2023-10-19T15:06:07Z</time>
      </trkpt>
      <trkpt lat="48.69321" lon="7.18954">
        <ele>392.6</ele>
        <time>2023-10-19T15:06:19Z</time>
      </trkpt>
      <trkpt lat="48.69321" lon="7.1895">
        <ele>393</ele>
        <time>2023-10-19T15:06:22Z</time>
      </trkpt>
      <trkpt lat="48.69319" lon="7.18945">
        <ele>393.3</ele>
        <time>2023-10-19T15:06:27Z</time>
      </trkpt>
      <trkpt lat="48.69318" lon="7.18942">
        <ele>393.6</ele>
        <time>2023-10-19T15:06:29Z</time>
      </trkpt>
      <trkpt lat="48.6932" lon="7.18931">
        <ele>394.2</ele>
        <time>2023-10-19T15:06:35Z</time>
      </trkpt>
      <trkpt lat="48.69319" lon="7.18926">
        <ele>394.6</ele>
        <time>2023-10-19T15:06:39Z</time>
      </trkpt>
      <trkpt lat="48.69317" lon="7.18898">
        <ele>395.6</ele>
        <time>2023-10-19T15:06:55Z</time>
      </trkpt>
      <trkpt lat="48.69312" lon="7.18869">
        <ele>396.2</ele>
        <time>2023-10-19T15:07:06Z</time>
      </trkpt>
      <trkpt lat="48.69309" lon="7.18842">
        <ele>396.6</ele>
        <time>2023-10-19T15:07:15Z</time>
      </trkpt>
      <trkpt lat="48.69309" lon="7.18812">
        <ele>397</ele>
        <time>2023-10-19T15:07:25Z</time>
      </trkpt>
      <trkpt lat="48.69305" lon="7.18784">
        <ele>398.1</ele>
        <time>2023-10-19T15:07:36Z</time>
      </trkpt>
      <trkpt lat="48.69299" lon="7.18758">
        <ele>397.8</ele>
        <time>2023-10-19T15:07:44Z</time>
      </trkpt>
      <trkpt lat="48.6929" lon="7.18734">
        <ele>398.4</ele>
        <time>2023-10-19T15:07:52Z</time>
      </trkpt>
      <trkpt lat="48.69281" lon="7.18727">
        <ele>399.2</ele>
        <time>2023-10-19T15:07:59Z</time>
      </trkpt>
      <trkpt lat="48.69263" lon="7.18737">
        <ele>400.7</ele>
        <time>2023-10-19T15:08:08Z</time>
      </trkpt>
      <trkpt lat="48.69245" lon="7.18735">
        <ele>402.5</ele>
        <time>2023-10-19T15:08:16Z</time>
      </trkpt>
      <trkpt lat="48.69225" lon="7.18732">
        <ele>404.5</ele>
        <time>2023-10-19T15:08:24Z</time>
      </trkpt>
      <trkpt lat="48.69207" lon="7.1873">
        <ele>406.4</ele>
        <time>2023-10-19T15:08:32Z</time>
      </trkpt>
      <trkpt lat="48.69188" lon="7.18735">
        <ele>408.9</ele>
        <time>2023-10-19T15:08:40Z</time>
      </trkpt>
      <trkpt lat="48.6917" lon="7.18731">
        <ele>410.7</ele>
        <time>2023-10-19T15:08:47Z</time>
      </trkpt>
      <trkpt lat="48.69153" lon="7.18718">
        <ele>412.1</ele>
        <time>2023-10-19T15:08:54Z</time>
      </trkpt>
      <trkpt lat="48.69138" lon="7.187">
        <ele>412.5</ele>
        <time>2023-10-19T15:09:01Z</time>
      </trkpt>
      <trkpt lat="48.69123" lon="7.18681">
        <ele>412.2</ele>
        <time>2023-10-19T15:09:08Z</time>
      </trkpt>
      <trkpt lat="48.69106" lon="7.18665">
        <ele>411.7</ele>
        <time>2023-10-19T15:09:16Z</time>
      </trkpt>
      <trkpt lat="48.69088" lon="7.18659">
        <ele>411.3</ele>
        <time>2023-10-19T15:09:23Z</time>
      </trkpt>
      <trkpt lat="48.69071" lon="7.18648">
        <ele>410.8</ele>
        <time>2023-10-19T15:09:31Z</time>
      </trkpt>
      <trkpt lat="48.69053" lon="7.1864">
        <ele>410.3</ele>
        <time>2023-10-19T15:09:38Z</time>
      </trkpt>
      <trkpt lat="48.69036" lon="7.18622">
        <ele>409.8</ele>
        <time>2023-10-19T15:09:46Z</time>
      </trkpt>
      <trkpt lat="48.69019" lon="7.18603">
        <ele>409.3</ele>
        <time>2023-10-19T15:09:54Z</time>
      </trkpt>
      <trkpt lat="48.69002" lon="7.18588">
        <ele>408.8</ele>
        <time>2023-10-19T15:10:01Z</time>
      </trkpt>
      <trkpt lat="48.68986" lon="7.1857">
        <ele>408.3</ele>
        <time>2023-10-19T15:10:08Z</time>
      </trkpt>
      <trkpt lat="48.68971" lon="7.18552">
        <ele>407.8</ele>
        <time>2023-10-19T15:10:15Z</time>
      </trkpt>
      <trkpt lat="48.68956" lon="7.18532">
        <ele>407.3</ele>
        <time>2023-10-19T15:10:23Z</time>
      </trkpt>
      <trkpt lat="48.68944" lon="7.1851">
        <ele>406.8</ele>
        <time>2023-10-19T15:10:31Z</time>
      </trkpt>
      <trkpt lat="48.68935" lon="7.18485">
        <ele>406.4</ele>
        <time>2023-10-19T15:10:39Z</time>
      </trkpt>
      <trkpt lat="48.68922" lon="7.18462">
        <ele>405.9</ele>
        <time>2023-10-19T15:10:47Z</time>
      </trkpt>
      <trkpt lat="48.68911" lon="7.18438">
        <ele>405.4</ele>
        <time>2023-10-19T15:10:54Z</time>
      </trkpt>
      <trkpt lat="48.68904" lon="7.18413">
        <ele>404.9</ele>
        <time>2023-10-19T15:11:01Z</time>
      </trkpt>
      <trkpt lat="48.68899" lon="7.18387">
        <ele>404.5</ele>
        <time>2023-10-19T15:11:07Z</time>
      </trkpt>
      <trkpt lat="48.68891" lon="7.1836">
        <ele>404</ele>
        <time>2023-10-19T15:11:12Z</time>
      </trkpt>
      <trkpt lat="48.68878" lon="7.18333">
        <ele>403.4</ele>
        <time>2023-10-19T15:11:18Z</time>
      </trkpt>
      <trkpt lat="48.68865" lon="7.18308">
        <ele>402.9</ele>
        <time>2023-10-19T15:11:24Z</time>
      </trkpt>
      <trkpt lat="48.68858" lon="7.18283">
        <ele>402.5</ele>
        <time>2023-10-19T15:11:30Z</time>
      </trkpt>
      <trkpt lat="48.68847" lon="7.18256">
        <ele>401.9</ele>
        <time>2023-10-19T15:11:36Z</time>
      </trkpt>
      <trkpt lat="48.68846" lon="7.18229">
        <ele>401.5</ele>
        <time>2023-10-19T15:11:42Z</time>
      </trkpt>
      <trkpt lat="48.68848" lon="7.18199">
        <ele>401</ele>
        <time>2023-10-19T15:11:48Z</time>
      </trkpt>
      <trkpt lat="48.6885" lon="7.18169">
        <ele>400.5</ele>
        <time>2023-10-19T15:11:54Z</time>
      </trkpt>
      <trkpt lat="48.68855" lon="7.18142">
        <ele>400</ele>
        <time>2023-10-19T15:11:59Z</time>
      </trkpt>
      <trkpt lat="48.68861" lon="7.18112">
        <ele>399.5</ele>
        <time>2023-10-19T15:12:05Z</time>
      </trkpt>
      <trkpt lat="48.68862" lon="7.18084">
        <ele>399.1</ele>
        <time>2023-10-19T15:12:11Z</time>
      </trkpt>
      <trkpt lat="48.68866" lon="7.18054">
        <ele>398.6</ele>
        <time>2023-10-19T15:12:17Z</time>
      </trkpt>
      <trkpt lat="48.68877" lon="7.18029">
        <ele>398.1</ele>
        <time>2023-10-19T15:12:23Z</time>
      </trkpt>
      <trkpt lat="48.68893" lon="7.18013">
        <ele>397.6</ele>
        <time>2023-10-19T15:12:29Z</time>
      </trkpt>
      <trkpt lat="48.68907" lon="7.1799">
        <ele>397.1</ele>
        <time>2023-10-19T15:12:36Z</time>
      </trkpt>
      <trkpt lat="48.68919" lon="7.17969">
        <ele>396.6</ele>
        <time>2023-10-19T15:12:42Z</time>
      </trkpt>
      <trkpt lat="48.68933" lon="7.1795">
        <ele>396.1</ele>
        <time>2023-10-19T15:12:48Z</time>
      </trkpt>
      <trkpt lat="48.68947" lon="7.17932">
        <ele>395.7</ele>
        <time>2023-10-19T15:12:54Z</time>
      </trkpt>
      <trkpt lat="48.6896" lon="7.17911">
        <ele>395.2</ele>
        <time>2023-10-19T15:13:00Z</time>
      </trkpt>
      <trkpt lat="48.68972" lon="7.17888">
        <ele>394.7</ele>
        <time>2023-10-19T15:13:06Z</time>
      </trkpt>
      <trkpt lat="48.68984" lon="7.17864">
        <ele>394.2</ele>
        <time>2023-10-19T15:13:12Z</time>
      </trkpt>
      <trkpt lat="48.68995" lon="7.1784">
        <ele>393.7</ele>
        <time>2023-10-19T15:13:18Z</time>
      </trkpt>
      <trkpt lat="48.69006" lon="7.17818">
        <ele>393.3</ele>
        <time>2023-10-19T15:13:24Z</time>
      </trkpt>
      <trkpt lat="48.69018" lon="7.17794">
        <ele>392.8</ele>
        <time>2023-10-19T15:13:30Z</time>
      </trkpt>
      <trkpt lat="48.69031" lon="7.17774">
        <ele>392.3</ele>
        <time>2023-10-19T15:13:36Z</time>
      </trkpt>
      <trkpt lat="48.69047" lon="7.17758">
        <ele>391.8</ele>
        <time>2023-10-19T15:13:43Z</time>
      </trkpt>
      <trkpt lat="48.69065" lon="7.17744">
        <ele>391.4</ele>
        <time>2023-10-19T15:13:50Z</time>
      </trkpt>
      <trkpt lat="48.69081" lon="7.17731">
        <ele>391</ele>
        <time>2023-10-19T15:13:57Z</time>
      </trkpt>
      <trkpt lat="48.69097" lon="7.17711">
        <ele>390.5</ele>
        <time>2023-10-19T15:14:04Z</time>
      </trkpt>
      <trkpt lat="48.6911" lon="7.17689">
        <ele>390</ele>
        <time>2023-10-19T15:14:11Z</time>
      </trkpt>
      <trkpt lat="48.69123" lon="7.17667">
        <ele>389.5</ele>
        <time>2023-10-19T15:14:16Z</time>
      </trkpt>
      <trkpt lat="48.69136" lon="7.17643">
        <ele>389.1</ele>
        <time>2023-10-19T15:14:23Z</time>
      </trkpt>
      <trkpt lat="48.69147" lon="7.17621">
        <ele>388.6</ele>
        <time>2023-10-19T15:14:30Z</time>
      </trkpt>
      <trkpt lat="48.69154" lon="7.17595">
        <ele>388.2</ele>
        <time>2023-10-19T15:14:36Z</time>
      </trkpt>
      <trkpt lat="48.69159" lon="7.17565">
        <ele>389.9</ele>
        <time>2023-10-19T15:14:43Z</time>
      </trkpt>
      <trkpt lat="48.69158" lon="7.17535">
        <ele>390.7</ele>
        <time>2023-10-19T15:14:50Z</time>
      </trkpt>
      <trkpt lat="48.69159" lon="7.17508">
        <ele>390.8</ele>
        <time>2023-10-19T15:14:57Z</time>
      </trkpt>
      <trkpt lat="48.69161" lon="7.1748">
        <ele>389.9</ele>
        <time>2023-10-19T15:15:04Z</time>
      </trkpt>
      <trkpt lat="48.69162" lon="7.17453">
        <ele>388</ele>
        <time>2023-10-19T15:15:11Z</time>
      </trkpt>
      <trkpt lat="48.69166" lon="7.17425">
        <ele>387.2</ele>
        <time>2023-10-19T15:15:18Z</time>
      </trkpt>
      <trkpt lat="48.69174" lon="7.17398">
        <ele>387.3</ele>
        <time>2023-10-19T15:15:25Z</time>
      </trkpt>
      <trkpt lat="48.69185" lon="7.17372">
        <ele>386.6</ele>
        <time>2023-10-19T15:15:32Z</time>
      </trkpt>
      <trkpt lat="48.69199" lon="7.17351">
        <ele>385.6</ele>
        <time>2023-10-19T15:15:38Z</time>
      </trkpt>
      <trkpt lat="48.69217" lon="7.17336">
        <ele>384</ele>
        <time>2023-10-19T15:15:44Z</time>
      </trkpt>
      <trkpt lat="48.69233" lon="7.17318">
        <ele>380.9</ele>
        <time>2023-10-19T15:15:50Z</time>
      </trkpt>
      <trkpt lat="48.69247" lon="7.173">
        <ele>376.7</ele>
        <time>2023-10-19T15:15:56Z</time>
      </trkpt>
      <trkpt lat="48.69263" lon="7.17284">
        <ele>372.4</ele>
        <time>2023-10-19T15:16:03Z</time>
      </trkpt>
      <trkpt lat="48.6928" lon="7.17272">
        <ele>368.3</ele>
        <time>2023-10-19T15:16:11Z</time>
      </trkpt>
      <trkpt lat="48.69294" lon="7.17252">
        <ele>363.2</ele>
        <time>2023-10-19T15:16:24Z</time>
      </trkpt>
      <trkpt lat="48.69311" lon="7.17243">
        <ele>360.3</ele>
        <time>2023-10-19T15:16:33Z</time>
      </trkpt>
      <trkpt lat="48.69328" lon="7.17228">
        <ele>358.1</ele>
        <time>2023-10-19T15:16:43Z</time>
      </trkpt>
      <trkpt lat="48.69346" lon="7.17214">
        <ele>356.5</ele>
        <time>2023-10-19T15:16:52Z</time>
      </trkpt>
      <trkpt lat="48.69361" lon="7.17197">
        <ele>356.1</ele>
        <time>2023-10-19T15:16:59Z</time>
      </trkpt>
      <trkpt lat="48.69378" lon="7.17183">
        <ele>356.6</ele>
        <time>2023-10-19T15:17:06Z</time>
      </trkpt>
      <trkpt lat="48.69393" lon="7.17167">
        <ele>357.3</ele>
        <time>2023-10-19T15:17:12Z</time>
      </trkpt>
      <trkpt lat="48.6941" lon="7.17152">
        <ele>358.5</ele>
        <time>2023-10-19T15:17:18Z</time>
      </trkpt>
      <trkpt lat="48.69425" lon="7.17137">
        <ele>360.9</ele>
        <time>2023-10-19T15:17:24Z</time>
      </trkpt>
      <trkpt lat="48.6944" lon="7.17119">
        <ele>363.7</ele>
        <time>2023-10-19T15:17:31Z</time>
      </trkpt>
      <trkpt lat="48.69451" lon="7.17098">
        <ele>366.4</ele>
        <time>2023-10-19T15:17:39Z</time>
      </trkpt>
      <trkpt lat="48.69462" lon="7.17075">
        <ele>369.1</ele>
        <time>2023-10-19T15:17:47Z</time>
      </trkpt>
      <trkpt lat="48.69468" lon="7.17049">
        <ele>370.4</ele>
        <time>2023-10-19T15:17:56Z</time>
      </trkpt>
      <trkpt lat="48.69464" lon="7.17021">
        <ele>370.4</ele>
        <time>2023-10-19T15:18:04Z</time>
      </trkpt>
      <trkpt lat="48.69452" lon="7.16996">
        <ele>370.3</ele>
        <time>2023-10-19T15:18:12Z</time>
      </trkpt>
      <trkpt lat="48.69446" lon="7.16966">
        <ele>370.2</ele>
        <time>2023-10-19T15:18:19Z</time>
      </trkpt>
      <trkpt lat="48.69444" lon="7.16935">
        <ele>370</ele>
        <time>2023-10-19T15:18:27Z</time>
      </trkpt>
      <trkpt lat="48.69448" lon="7.16906">
        <ele>370.4</ele>
        <time>2023-10-19T15:18:34Z</time>
      </trkpt>
      <trkpt lat="48.69462" lon="7.16885">
        <ele>372.6</ele>
        <time>2023-10-19T15:18:40Z</time>
      </trkpt>
      <trkpt lat="48.69475" lon="7.16863">
        <ele>374.9</ele>
        <time>2023-10-19T15:18:47Z</time>
      </trkpt>
      <trkpt lat="48.69483" lon="7.16833">
        <ele>376</ele>
        <time>2023-10-19T15:18:54Z</time>
      </trkpt>
      <trkpt lat="48.69484" lon="7.16802">
        <ele>376.8</ele>
        <time>2023-10-19T15:19:00Z</time>
      </trkpt>
      <trkpt lat="48.69482" lon="7.16774">
        <ele>377.1</ele>
        <time>2023-10-19T15:19:06Z</time>
      </trkpt>
      <trkpt lat="48.6948" lon="7.16745">
        <ele>378.5</ele>
        <time>2023-10-19T15:19:13Z</time>
      </trkpt>
      <trkpt lat="48.69473" lon="7.16716">
        <ele>379.6</ele>
        <time>2023-10-19T15:19:20Z</time>
      </trkpt>
      <trkpt lat="48.69476" lon="7.16701">
        <ele>380.5</ele>
        <time>2023-10-19T15:19:25Z</time>
      </trkpt>
      <trkpt lat="48.6949" lon="7.16717">
        <ele>382.5</ele>
        <time>2023-10-19T15:19:37Z</time>
      </trkpt>
      <trkpt lat="48.69502" lon="7.16739">
        <ele>383.3</ele>
        <time>2023-10-19T15:19:46Z</time>
      </trkpt>
      <trkpt lat="48.69516" lon="7.16757">
        <ele>385.2</ele>
        <time>2023-10-19T15:19:54Z</time>
      </trkpt>
      <trkpt lat="48.6953" lon="7.16773">
        <ele>386.9</ele>
        <time>2023-10-19T15:20:03Z</time>
      </trkpt>
      <trkpt lat="48.69548" lon="7.16791">
        <ele>388.5</ele>
        <time>2023-10-19T15:20:11Z</time>
      </trkpt>
      <trkpt lat="48.69563" lon="7.16808">
        <ele>388.7</ele>
        <time>2023-10-19T15:20:17Z</time>
      </trkpt>
      <trkpt lat="48.6958" lon="7.16827">
        <ele>388</ele>
        <time>2023-10-19T15:20:24Z</time>
      </trkpt>
      <trkpt lat="48.69596" lon="7.16842">
        <ele>387.3</ele>
        <time>2023-10-19T15:20:31Z</time>
      </trkpt>
      <trkpt lat="48.69613" lon="7.16854">
        <ele>387</ele>
        <time>2023-10-19T15:20:39Z</time>
      </trkpt>
      <trkpt lat="48.6963" lon="7.16871">
        <ele>387.1</ele>
        <time>2023-10-19T15:20:46Z</time>
      </trkpt>
      <trkpt lat="48.69648" lon="7.16885">
        <ele>387.4</ele>
        <time>2023-10-19T15:20:52Z</time>
      </trkpt>
      <trkpt lat="48.69666" lon="7.16896">
        <ele>387.8</ele>
        <time>2023-10-19T15:21:00Z</time>
      </trkpt>
      <trkpt lat="48.69684" lon="7.16899">
        <ele>388</ele>
        <time>2023-10-19T15:21:09Z</time>
      </trkpt>
      <trkpt lat="48.69686" lon="7.16897">
        <ele>388</ele>
        <time>2023-10-19T15:21:10Z</time>
      </trkpt>
      <trkpt lat="48.697" lon="7.16876">
        <ele>387.4</ele>
        <time>2023-10-19T15:21:18Z</time>
      </trkpt>
      <trkpt lat="48.69712" lon="7.16852">
        <ele>386.4</ele>
        <time>2023-10-19T15:21:25Z</time>
      </trkpt>
      <trkpt lat="48.69723" lon="7.16827">
        <ele>385.7</ele>
        <time>2023-10-19T15:21:31Z</time>
      </trkpt>
      <trkpt lat="48.69736" lon="7.16804">
        <ele>384.9</ele>
        <time>2023-10-19T15:21:37Z</time>
      </trkpt>
      <trkpt lat="48.69749" lon="7.16782">
        <ele>384.3</ele>
        <time>2023-10-19T15:21:43Z</time>
      </trkpt>
      <trkpt lat="48.69763" lon="7.16764">
        <ele>383.8</ele>
        <time>2023-10-19T15:21:49Z</time>
      </trkpt>
      <trkpt lat="48.6978" lon="7.16748">
        <ele>383.1</ele>
        <time>2023-10-19T15:21:56Z</time>
      </trkpt>
      <trkpt lat="48.69793" lon="7.16738">
        <ele>382.5</ele>
        <time>2023-10-19T15:22:03Z</time>
      </trkpt>
      <trkpt lat="48.69787" lon="7.16722">
        <ele>382.1</ele>
        <time>2023-10-19T15:22:08Z</time>
      </trkpt>
      <trkpt lat="48.69788" lon="7.16691">
        <ele>381.2</ele>
        <time>2023-10-19T15:22:15Z</time>
      </trkpt>
      <trkpt lat="48.69785" lon="7.16659">
        <ele>380.5</ele>
        <time>2023-10-19T15:22:21Z</time>
      </trkpt>
      <trkpt lat="48.69783" lon="7.16629">
        <ele>380</ele>
        <time>2023-10-19T15:22:27Z</time>
      </trkpt>
      <trkpt lat="48.69782" lon="7.16602">
        <ele>379.7</ele>
        <time>2023-10-19T15:22:33Z</time>
      </trkpt>
      <trkpt lat="48.69781" lon="7.1657">
        <ele>379.6</ele>
        <time>2023-10-19T15:22:39Z</time>
      </trkpt>
      <trkpt lat="48.69779" lon="7.16541">
        <ele>379.6</ele>
        <time>2023-10-19T15:22:45Z</time>
      </trkpt>
      <trkpt lat="48.69779" lon="7.16512">
        <ele>379.6</ele>
        <time>2023-10-19T15:22:51Z</time>
      </trkpt>
      <trkpt lat="48.6978" lon="7.16479">
        <ele>379.5</ele>
        <time>2023-10-19T15:22:58Z</time>
      </trkpt>
      <trkpt lat="48.69781" lon="7.16448">
        <ele>379.5</ele>
        <time>2023-10-19T15:23:04Z</time>
      </trkpt>
      <trkpt lat="48.6978" lon="7.16417">
        <ele>379.1</ele>
        <time>2023-10-19T15:23:10Z</time>
      </trkpt>
      <trkpt lat="48.69784" lon="7.16388">
        <ele>378.8</ele>
        <time>2023-10-19T15:23:16Z</time>
      </trkpt>
      <trkpt lat="48.6979" lon="7.16359">
        <ele>378.4</ele>
        <time>2023-10-19T15:23:22Z</time>
      </trkpt>
      <trkpt lat="48.69797" lon="7.16333">
        <ele>378.3</ele>
        <time>2023-10-19T15:23:28Z</time>
      </trkpt>
      <trkpt lat="48.69804" lon="7.16306">
        <ele>378.3</ele>
        <time>2023-10-19T15:23:34Z</time>
      </trkpt>
      <trkpt lat="48.69811" lon="7.16277">
        <ele>378.2</ele>
        <time>2023-10-19T15:23:41Z</time>
      </trkpt>
      <trkpt lat="48.69812" lon="7.16249">
        <ele>378.3</ele>
        <time>2023-10-19T15:23:49Z</time>
      </trkpt>
      <trkpt lat="48.69809" lon="7.16222">
        <ele>378.3</ele>
        <time>2023-10-19T15:23:56Z</time>
      </trkpt>
      <trkpt lat="48.69797" lon="7.162">
        <ele>378.2</ele>
        <time>2023-10-19T15:24:04Z</time>
      </trkpt>
      <trkpt lat="48.69785" lon="7.16178">
        <ele>378.1</ele>
        <time>2023-10-19T15:24:11Z</time>
      </trkpt>
      <trkpt lat="48.69775" lon="7.16161">
        <ele>378</ele>
        <time>2023-10-19T15:24:19Z</time>
      </trkpt>
      <trkpt lat="48.6978" lon="7.16133">
        <ele>377.5</ele>
        <time>2023-10-19T15:24:26Z</time>
      </trkpt>
      <trkpt lat="48.6979" lon="7.16107">
        <ele>376.5</ele>
        <time>2023-10-19T15:24:32Z</time>
      </trkpt>
      <trkpt lat="48.69804" lon="7.16088">
        <ele>375.7</ele>
        <time>2023-10-19T15:24:38Z</time>
      </trkpt>
      <trkpt lat="48.69821" lon="7.16069">
        <ele>374.8</ele>
        <time>2023-10-19T15:24:44Z</time>
      </trkpt>
      <trkpt lat="48.69834" lon="7.1605">
        <ele>374</ele>
        <time>2023-10-19T15:24:49Z</time>
      </trkpt>
      <trkpt lat="48.69854" lon="7.16045">
        <ele>373.2</ele>
        <time>2023-10-19T15:24:55Z</time>
      </trkpt>
      <trkpt lat="48.69875" lon="7.16046">
        <ele>372.2</ele>
        <time>2023-10-19T15:25:01Z</time>
      </trkpt>
      <trkpt lat="48.69896" lon="7.16046">
        <ele>371.1</ele>
        <time>2023-10-19T15:25:07Z</time>
      </trkpt>
      <trkpt lat="48.69917" lon="7.16043">
        <ele>369.9</ele>
        <time>2023-10-19T15:25:13Z</time>
      </trkpt>
      <trkpt lat="48.69936" lon="7.16042">
        <ele>368.8</ele>
        <time>2023-10-19T15:25:18Z</time>
      </trkpt>
      <trkpt lat="48.69955" lon="7.16041">
        <ele>367.8</ele>
        <time>2023-10-19T15:25:23Z</time>
      </trkpt>
      <trkpt lat="48.69974" lon="7.16038">
        <ele>366.7</ele>
        <time>2023-10-19T15:25:28Z</time>
      </trkpt>
      <trkpt lat="48.69992" lon="7.16037">
        <ele>365.7</ele>
        <time>2023-10-19T15:25:33Z</time>
      </trkpt>
      <trkpt lat="48.7001" lon="7.16038">
        <ele>364.6</ele>
        <time>2023-10-19T15:25:38Z</time>
      </trkpt>
      <trkpt lat="48.70028" lon="7.16037">
        <ele>363.4</ele>
        <time>2023-10-19T15:25:43Z</time>
      </trkpt>
      <trkpt lat="48.70049" lon="7.16035">
        <ele>362.2</ele>
        <time>2023-10-19T15:25:48Z</time>
      </trkpt>
      <trkpt lat="48.70068" lon="7.16034">
        <ele>361.2</ele>
        <time>2023-10-19T15:25:53Z</time>
      </trkpt>
      <trkpt lat="48.70087" lon="7.16034">
        <ele>360.1</ele>
        <time>2023-10-19T15:25:58Z</time>
      </trkpt>
      <trkpt lat="48.70106" lon="7.16034">
        <ele>359</ele>
        <time>2023-10-19T15:26:03Z</time>
      </trkpt>
      <trkpt lat="48.70125" lon="7.16034">
        <ele>358</ele>
        <time>2023-10-19T15:26:08Z</time>
      </trkpt>
      <trkpt lat="48.70143" lon="7.16034">
        <ele>357.1</ele>
        <time>2023-10-19T15:26:13Z</time>
      </trkpt>
      <trkpt lat="48.70162" lon="7.16033">
        <ele>356</ele>
        <time>2023-10-19T15:26:18Z</time>
      </trkpt>
      <trkpt lat="48.70183" lon="7.16032">
        <ele>354.7</ele>
        <time>2023-10-19T15:26:24Z</time>
      </trkpt>
      <trkpt lat="48.70204" lon="7.16031">
        <ele>353.4</ele>
        <time>2023-10-19T15:26:30Z</time>
      </trkpt>
      <trkpt lat="48.70225" lon="7.1603">
        <ele>352.7</ele>
        <time>2023-10-19T15:26:36Z</time>
      </trkpt>
      <trkpt lat="48.70246" lon="7.16027">
        <ele>351.6</ele>
        <time>2023-10-19T15:26:42Z</time>
      </trkpt>
      <trkpt lat="48.70267" lon="7.16027">
        <ele>350.4</ele>
        <time>2023-10-19T15:26:48Z</time>
      </trkpt>
      <trkpt lat="48.70286" lon="7.16027">
        <ele>349.4</ele>
        <time>2023-10-19T15:26:53Z</time>
      </trkpt>
      <trkpt lat="48.70306" lon="7.16025">
        <ele>348.3</ele>
        <time>2023-10-19T15:26:59Z</time>
      </trkpt>
      <trkpt lat="48.70328" lon="7.16027">
        <ele>346.9</ele>
        <time>2023-10-19T15:27:05Z</time>
      </trkpt>
      <trkpt lat="48.70348" lon="7.16027">
        <ele>345.5</ele>
        <time>2023-10-19T15:27:11Z</time>
      </trkpt>
      <trkpt lat="48.70366" lon="7.16027">
        <ele>344.3</ele>
        <time>2023-10-19T15:27:17Z</time>
      </trkpt>
      <trkpt lat="48.70385" lon="7.1603">
        <ele>343</ele>
        <time>2023-10-19T15:27:22Z</time>
      </trkpt>
      <trkpt lat="48.70403" lon="7.16035">
        <ele>341.9</ele>
        <time>2023-10-19T15:27:27Z</time>
      </trkpt>
      <trkpt lat="48.70422" lon="7.16039">
        <ele>340.9</ele>
        <time>2023-10-19T15:27:32Z</time>
      </trkpt>
      <trkpt lat="48.70441" lon="7.16045">
        <ele>340</ele>
        <time>2023-10-19T15:27:37Z</time>
      </trkpt>
      <trkpt lat="48.70459" lon="7.16052">
        <ele>339.4</ele>
        <time>2023-10-19T15:27:42Z</time>
      </trkpt>
      <trkpt lat="48.70479" lon="7.1606">
        <ele>338.9</ele>
        <time>2023-10-19T15:27:48Z</time>
      </trkpt>
      <trkpt lat="48.70498" lon="7.16069">
        <ele>338.7</ele>
        <time>2023-10-19T15:27:54Z</time>
      </trkpt>
      <trkpt lat="48.70517" lon="7.16078">
        <ele>338.7</ele>
        <time>2023-10-19T15:28:00Z</time>
      </trkpt>
      <trkpt lat="48.70535" lon="7.16086">
        <ele>338.6</ele>
        <time>2023-10-19T15:28:06Z</time>
      </trkpt>
      <trkpt lat="48.70554" lon="7.16093">
        <ele>338.4</ele>
        <time>2023-10-19T15:28:13Z</time>
      </trkpt>
      <trkpt lat="48.70574" lon="7.16095">
        <ele>337.8</ele>
        <time>2023-10-19T15:28:19Z</time>
      </trkpt>
      <trkpt lat="48.70593" lon="7.16095">
        <ele>337</ele>
        <time>2023-10-19T15:28:25Z</time>
      </trkpt>
      <trkpt lat="48.70611" lon="7.16094">
        <ele>336.2</ele>
        <time>2023-10-19T15:28:31Z</time>
      </trkpt>
      <trkpt lat="48.70631" lon="7.1609">
        <ele>335.2</ele>
        <time>2023-10-19T15:28:37Z</time>
      </trkpt>
      <trkpt lat="48.7065" lon="7.16089">
        <ele>334.2</ele>
        <time>2023-10-19T15:28:43Z</time>
      </trkpt>
      <trkpt lat="48.7067" lon="7.16087">
        <ele>333.1</ele>
        <time>2023-10-19T15:28:49Z</time>
      </trkpt>
      <trkpt lat="48.70691" lon="7.16091">
        <ele>331.9</ele>
        <time>2023-10-19T15:28:56Z</time>
      </trkpt>
      <trkpt lat="48.70709" lon="7.1609">
        <ele>330.9</ele>
        <time>2023-10-19T15:29:02Z</time>
      </trkpt>
      <trkpt lat="48.70729" lon="7.1609">
        <ele>329.9</ele>
        <time>2023-10-19T15:29:08Z</time>
      </trkpt>
      <trkpt lat="48.70749" lon="7.16091">
        <ele>328.9</ele>
        <time>2023-10-19T15:29:14Z</time>
      </trkpt>
      <trkpt lat="48.70768" lon="7.16094">
        <ele>328.1</ele>
        <time>2023-10-19T15:29:20Z</time>
      </trkpt>
      <trkpt lat="48.70787" lon="7.16097">
        <ele>327.1</ele>
        <time>2023-10-19T15:29:26Z</time>
      </trkpt>
      <trkpt lat="48.70807" lon="7.16101">
        <ele>326.2</ele>
        <time>2023-10-19T15:29:32Z</time>
      </trkpt>
      <trkpt lat="48.70825" lon="7.16106">
        <ele>325.4</ele>
        <time>2023-10-19T15:29:38Z</time>
      </trkpt>
      <trkpt lat="48.70845" lon="7.16111">
        <ele>324.5</ele>
        <time>2023-10-19T15:29:45Z</time>
      </trkpt>
      <trkpt lat="48.70863" lon="7.16117">
        <ele>323.8</ele>
        <time>2023-10-19T15:29:51Z</time>
      </trkpt>
      <trkpt lat="48.70881" lon="7.1612">
        <ele>323.1</ele>
        <time>2023-10-19T15:29:57Z</time>
      </trkpt>
      <trkpt lat="48.70901" lon="7.16125">
        <ele>322.4</ele>
        <time>2023-10-19T15:30:04Z</time>
      </trkpt>
      <trkpt lat="48.7092" lon="7.16129">
        <ele>321.7</ele>
        <time>2023-10-19T15:30:10Z</time>
      </trkpt>
      <trkpt lat="48.7094" lon="7.16135">
        <ele>321</ele>
        <time>2023-10-19T15:30:16Z</time>
      </trkpt>
      <trkpt lat="48.70961" lon="7.16141">
        <ele>320.2</ele>
        <time>2023-10-19T15:30:22Z</time>
      </trkpt>
      <trkpt lat="48.70979" lon="7.16149">
        <ele>319.6</ele>
        <time>2023-10-19T15:30:28Z</time>
      </trkpt>
      <trkpt lat="48.70999" lon="7.16155">
        <ele>319</ele>
        <time>2023-10-19T15:30:34Z</time>
      </trkpt>
      <trkpt lat="48.71019" lon="7.16159">
        <ele>318.7</ele>
        <time>2023-10-19T15:30:40Z</time>
      </trkpt>
      <trkpt lat="48.71039" lon="7.16165">
        <ele>318.6</ele>
        <time>2023-10-19T15:30:46Z</time>
      </trkpt>
      <trkpt lat="48.71058" lon="7.16172">
        <ele>318.5</ele>
        <time>2023-10-19T15:30:52Z</time>
      </trkpt>
      <trkpt lat="48.71077" lon="7.16183">
        <ele>318.4</ele>
        <time>2023-10-19T15:30:58Z</time>
      </trkpt>
      <trkpt lat="48.71092" lon="7.16199">
        <ele>318.2</ele>
        <time>2023-10-19T15:31:04Z</time>
      </trkpt>
      <trkpt lat="48.71106" lon="7.16219">
        <ele>318.1</ele>
        <time>2023-10-19T15:31:10Z</time>
      </trkpt>
      <trkpt lat="48.71119" lon="7.16237">
        <ele>317.9</ele>
        <time>2023-10-19T15:31:16Z</time>
      </trkpt>
      <trkpt lat="48.71134" lon="7.16256">
        <ele>317.5</ele>
        <time>2023-10-19T15:31:22Z</time>
      </trkpt>
      <trkpt lat="48.71152" lon="7.16269">
        <ele>316.8</ele>
        <time>2023-10-19T15:31:28Z</time>
      </trkpt>
      <trkpt lat="48.71156" lon="7.16278">
        <ele>316.5</ele>
        <time>2023-10-19T15:31:30Z</time>
      </trkpt>
    </trkseg>
  </trk>
</gpx>